createdAt,value
2022-11-30T00:01:23.104Z,102528.38
2022-11-30T00:03:54.025Z,102512.13
2022-11-30T00:06:24.738Z,102522.41
2022-11-30T00:08:56.667Z,102506.13
2022-11-30T00:11:26.101Z,102512.22
2022-11-30T00:13:53.332Z,102517.25
2022-11-30T00:16:20.340Z,102521.47
2022-11-30T00:18:47.274Z,102524.00
2022-11-30T00:21:15.021Z,102527.41
2022-11-30T00:23:44.657Z,102520.50
2022-11-30T00:26:14.192Z,102530.75
2022-11-30T00:28:42.053Z,102519.59
2022-11-30T00:31:12.905Z,102512.91
2022-11-30T00:33:40.693Z,102518.09
2022-11-30T00:36:12.011Z,102514.69
2022-11-30T00:38:39.514Z,102508.66
2022-11-30T00:41:07.082Z,102492.38
2022-11-30T00:43:34.345Z,102514.63
2022-11-30T00:46:01.311Z,102506.16
2022-11-30T00:48:28.722Z,102498.56
2022-11-30T00:50:55.743Z,102505.38
2022-11-30T00:53:23.191Z,102505.38
2022-11-30T00:55:50.194Z,102498.56
2022-11-30T00:58:17.337Z,102508.72
2022-11-30T01:00:44.532Z,102496.00
2022-11-30T01:03:12.503Z,102498.56
2022-11-30T01:05:39.864Z,102494.22
2022-11-30T01:08:09.943Z,102501.13
2022-11-30T01:10:38.906Z,102500.28
2022-11-30T01:13:06.404Z,102498.56
2022-11-30T01:15:40.748Z,102501.91
2022-11-30T01:18:07.725Z,102496.81
2022-11-30T01:20:35.136Z,102496.81
2022-11-30T01:23:02.088Z,102495.97
2022-11-30T01:25:28.971Z,102497.63
2022-11-30T01:27:55.908Z,102490.84
2022-11-30T01:30:22.810Z,102496.75
2022-11-30T01:32:49.707Z,102489.97
2022-11-30T01:35:16.737Z,102501.84
2022-11-30T01:37:43.643Z,102495.88
2022-11-30T01:40:11.780Z,102499.25
2022-11-30T01:42:46.716Z,102499.31
2022-11-30T01:45:14.441Z,102495.88
2022-11-30T01:47:49.187Z,102491.59
2022-11-30T01:50:21.852Z,102491.59
2022-11-30T01:52:56.115Z,102487.31
2022-11-30T01:55:29.843Z,102488.03
2022-11-30T01:57:56.716Z,102476.91
2022-11-30T02:00:24.095Z,102470.88
2022-11-30T02:02:57.078Z,102487.97
2022-11-30T02:05:25.604Z,102482.00
2022-11-30T02:07:53.031Z,102472.63
2022-11-30T02:10:27.129Z,102480.31
2022-11-30T02:13:03.069Z,102476.94
2022-11-30T02:16:17.449Z,102483.72
2022-11-30T02:19:08.928Z,102474.38
2022-11-30T02:21:47.023Z,102475.19
2022-11-30T02:24:40.223Z,102477.53
2022-11-30T02:27:45.152Z,102463.06
2022-11-30T02:30:16.744Z,102463.94
2022-11-30T02:32:59.296Z,102469.09
2022-11-30T02:35:30.426Z,102469.91
2022-11-30T02:37:59.615Z,102469.09
2022-11-30T02:40:26.858Z,102472.50
2022-11-30T02:42:55.982Z,102470.75
2022-11-30T02:45:39.546Z,102475.69
2022-11-30T02:48:11.499Z,102468.94
2022-11-30T02:50:44.405Z,102463.94
2022-11-30T02:53:11.634Z,102463.91
2022-11-30T02:55:38.735Z,102439.88
2022-11-30T02:58:06.024Z,102453.69
2022-11-30T03:00:32.899Z,102468.16
2022-11-30T03:02:59.899Z,102462.25
2022-11-30T03:05:26.860Z,102462.25
2022-11-30T03:07:53.854Z,102461.41
2022-11-30T03:10:21.097Z,102455.47
2022-11-30T03:12:48.069Z,102472.47
2022-11-30T03:15:15.175Z,102445.88
2022-11-30T03:17:42.121Z,102462.25
2022-11-30T03:20:10.106Z,102461.41
2022-11-30T03:22:37.020Z,102461.44
2022-11-30T03:25:04.128Z,102463.16
2022-11-30T03:27:31.217Z,102463.94
2022-11-30T03:29:58.119Z,102463.13
2022-11-30T03:32:25.079Z,102467.25
2022-11-30T03:34:51.955Z,102467.31
2022-11-30T03:37:18.982Z,102450.06
2022-11-30T03:39:45.910Z,102459.63
2022-11-30T03:42:12.854Z,102469.78
2022-11-30T03:44:39.826Z,102467.25
2022-11-30T03:47:06.695Z,102476.56
2022-11-30T03:49:33.627Z,102468.09
2022-11-30T03:52:00.636Z,102462.22
2022-11-30T03:54:27.696Z,102467.31
2022-11-30T03:56:54.670Z,102446.63
2022-11-30T03:59:21.623Z,102455.22
2022-11-30T04:01:48.642Z,102468.94
2022-11-30T04:04:15.712Z,102463.00
2022-11-30T04:06:42.658Z,102473.97
2022-11-30T04:09:10.282Z,102465.50
2022-11-30T04:11:37.162Z,102474.91
2022-11-30T04:14:04.171Z,102469.81
2022-11-30T04:16:31.231Z,102472.25
2022-11-30T04:18:58.391Z,102465.44
2022-11-30T04:21:25.383Z,102478.19
2022-11-30T04:23:52.363Z,102468.81
2022-11-30T04:26:19.409Z,102465.44
2022-11-30T04:28:46.379Z,102472.25
2022-11-30T04:31:13.493Z,102469.75
2022-11-30T04:33:40.429Z,102468.03
2022-11-30T04:36:08.271Z,102464.63
2022-11-30T04:38:37.039Z,102464.56
2022-11-30T04:41:09.005Z,102475.63
2022-11-30T04:43:36.163Z,102473.94
2022-11-30T04:46:04.622Z,102479.81
2022-11-30T04:48:31.634Z,102473.81
2022-11-30T04:51:06.682Z,102479.81
2022-11-30T04:53:35.047Z,102446.19
2022-11-30T04:56:07.102Z,102487.44
2022-11-30T04:58:34.793Z,102486.53
2022-11-30T05:01:01.812Z,102491.59
2022-11-30T05:03:28.826Z,102498.28
2022-11-30T05:05:55.866Z,102489.72
2022-11-30T05:08:22.771Z,102489.81
2022-11-30T05:10:54.550Z,102482.25
2022-11-30T05:13:23.216Z,102478.84
2022-11-30T05:15:50.358Z,102480.63
2022-11-30T05:18:17.425Z,102476.41
2022-11-30T05:20:51.576Z,102487.38
2022-11-30T05:23:19.426Z,102477.97
2022-11-30T05:25:46.693Z,102474.63
2022-11-30T05:28:14.183Z,102490.00
2022-11-30T05:30:42.970Z,102478.22
2022-11-30T05:33:09.936Z,102481.66
2022-11-30T05:35:37.432Z,102481.72
2022-11-30T05:38:05.019Z,102488.59
2022-11-30T05:40:33.715Z,102486.88
2022-11-30T05:43:02.227Z,102495.38
2022-11-30T05:45:30.451Z,102499.66
2022-11-30T05:47:57.447Z,102497.09
2022-11-30T05:50:24.716Z,102502.25
2022-11-30T05:52:58.079Z,102498.84
2022-11-30T05:55:25.122Z,102499.69
2022-11-30T05:57:52.528Z,102503.16
2022-11-30T06:00:20.928Z,102508.31
2022-11-30T06:02:48.076Z,102505.03
2022-11-30T06:05:15.223Z,102498.28
2022-11-30T06:07:42.327Z,102509.47
2022-11-30T06:10:09.688Z,102512.09
2022-11-30T06:12:36.703Z,102506.13
2022-11-30T06:15:04.598Z,102517.31
2022-11-30T06:17:31.551Z,102516.59
2022-11-30T06:19:58.525Z,102517.44
2022-11-30T06:22:25.598Z,102523.41
2022-11-30T06:24:52.494Z,102515.06
2022-11-30T06:27:19.386Z,102513.47
2022-11-30T06:29:46.425Z,102517.66
2022-11-30T06:32:13.401Z,102528.91
2022-11-30T06:34:40.293Z,102525.63
2022-11-30T06:37:07.383Z,102505.69
2022-11-30T06:40:04.368Z,102520.56
2022-11-30T06:42:21.516Z,102523.91
2022-11-30T06:44:49.396Z,102534.94
2022-11-30T06:47:16.566Z,102520.69
2022-11-30T06:49:43.500Z,102525.91
2022-11-30T06:52:10.439Z,102524.16
2022-11-30T06:54:37.411Z,102526.03
2022-11-30T06:57:04.324Z,102523.63
2022-11-30T06:59:31.284Z,102525.44
2022-11-30T07:02:01.611Z,102516.84
2022-11-30T07:04:31.191Z,102527.28
2022-11-30T07:06:58.373Z,102530.75
2022-11-30T07:09:25.188Z,102532.22
2022-11-30T07:11:52.088Z,102529.09
2022-11-30T07:14:18.959Z,102522.38
2022-11-30T07:16:45.938Z,102536.59
2022-11-30T07:19:12.829Z,102535.09
2022-11-30T07:21:39.713Z,102536.88
2022-11-30T07:24:25.327Z,102542.19
2022-11-30T07:26:52.378Z,102545.03
2022-11-30T07:29:19.323Z,102541.75
2022-11-30T07:31:51.945Z,102532.69
2022-11-30T07:34:19.602Z,102538.03
2022-11-30T07:36:47.238Z,102514.94
2022-11-30T07:39:15.950Z,102538.06
2022-11-30T07:41:43.070Z,102539.97
2022-11-30T07:44:10.681Z,102542.66
2022-11-30T07:46:38.855Z,102547.09
2022-11-30T07:49:07.354Z,102516.63
2022-11-30T07:51:34.326Z,102549.53
2022-11-30T07:54:01.441Z,102539.28
2022-11-30T07:56:29.643Z,102542.72
2022-11-30T07:59:00.664Z,102543.72
2022-11-30T08:01:30.134Z,102542.97
2022-11-30T08:03:57.873Z,102541.38
2022-11-30T08:06:33.857Z,102542.16
2022-11-30T08:09:04.324Z,102539.59
2022-11-30T08:11:34.153Z,102542.91
2022-11-30T08:14:02.597Z,102524.97
2022-11-30T08:16:31.573Z,102536.09
2022-11-30T08:18:59.170Z,102534.50
2022-11-30T08:21:26.301Z,102539.75
2022-11-30T08:23:56.678Z,102537.22
2022-11-30T08:26:26.878Z,102539.81
2022-11-30T08:28:54.676Z,102533.84
2022-11-30T08:31:33.334Z,102531.34
2022-11-30T08:34:04.042Z,102540.72
2022-11-30T08:36:32.156Z,102537.31
2022-11-30T08:39:01.124Z,102542.44
2022-11-30T08:41:28.524Z,102529.63
2022-11-30T08:43:55.479Z,102519.38
2022-11-30T08:49:27.032Z,102525.31
2022-11-30T08:54:47.791Z,102526.13
2022-11-30T08:57:20.526Z,102527.00
2022-11-30T08:59:48.374Z,102522.59
2022-11-30T09:02:18.233Z,102526.13
2022-11-30T09:04:49.098Z,102533.00
2022-11-30T09:07:16.697Z,102522.63
2022-11-30T09:09:43.674Z,102501.31
2022-11-30T09:12:10.627Z,102512.47
2022-11-30T09:14:37.659Z,102515.06
2022-11-30T09:17:05.057Z,102521.00
2022-11-30T09:19:32.021Z,102520.19
2022-11-30T09:21:59.150Z,102514.22
2022-11-30T09:24:26.132Z,102519.34
2022-11-30T09:26:56.922Z,102526.19
2022-11-30T09:29:24.291Z,102487.69
2022-11-30T09:31:51.356Z,102513.31
2022-11-30T09:34:18.272Z,102512.44
2022-11-30T09:36:45.246Z,102514.13
2022-11-30T09:39:13.202Z,102514.13
2022-11-30T09:42:05.295Z,102507.22
2022-11-30T09:44:41.311Z,102505.56
2022-11-30T09:47:14.118Z,102509.81
2022-11-30T09:49:44.262Z,102513.25
2022-11-30T09:52:37.469Z,102509.91
2022-11-30T09:55:08.770Z,102511.59
2022-11-30T09:57:48.044Z,102508.16
2022-11-30T10:00:23.619Z,102510.69
2022-11-30T10:02:53.205Z,102506.41
2022-11-30T10:05:41.123Z,102511.50
2022-11-30T10:08:15.224Z,102514.91
2022-11-30T10:11:13.457Z,102511.41
2022-11-30T10:13:55.532Z,102507.97
2022-11-30T10:16:31.607Z,102507.06
2022-11-30T10:19:20.042Z,102505.31
2022-11-30T10:22:14.608Z,102507.81
2022-11-30T10:25:13.922Z,102506.09
2022-11-30T10:27:54.014Z,102516.25
2022-11-30T10:30:26.221Z,102502.53
2022-11-30T10:33:00.794Z,102507.66
2022-11-30T10:35:37.231Z,102517.88
2022-11-30T10:38:27.840Z,102506.78
2022-11-30T10:41:03.670Z,102505.00
2022-11-30T10:43:46.756Z,102501.59
2022-11-30T10:46:41.111Z,102509.28
2022-11-30T10:49:14.495Z,102501.56
2022-11-30T10:51:44.579Z,102499.91
2022-11-30T10:54:18.284Z,102504.13
2022-11-30T10:56:45.816Z,102502.34
2022-11-30T10:59:22.706Z,102499.81
2022-11-30T11:01:49.591Z,102496.31
2022-11-30T11:04:22.551Z,102482.63
2022-11-30T11:07:08.027Z,102492.91
2022-11-30T11:09:39.409Z,102496.81
2022-11-30T11:12:19.197Z,102495.19
2022-11-30T11:14:46.337Z,102498.66
2022-11-30T11:17:19.122Z,102494.34
2022-11-30T11:19:48.640Z,102486.63
2022-11-30T11:22:21.884Z,102493.50
2022-11-30T11:24:50.622Z,102490.88
2022-11-30T11:27:23.585Z,102496.78
2022-11-30T11:30:08.051Z,102488.00
2022-11-30T11:32:35.316Z,102484.66
2022-11-30T11:35:02.319Z,102493.19
2022-11-30T11:37:33.889Z,102484.72
2022-11-30T11:40:17.821Z,102491.53
2022-11-30T11:42:51.137Z,102492.34
2022-11-30T11:45:22.143Z,102494.03
2022-11-30T11:47:58.297Z,102494.84
2022-11-30T11:53:43.118Z,102494.81
2022-11-30T11:56:14.449Z,102493.06
2022-11-30T11:58:51.771Z,102482.81
2022-11-30T12:01:41.028Z,102493.06
2022-11-30T12:04:30.166Z,102488.78
2022-11-30T12:07:01.465Z,102489.56
2022-11-30T12:09:34.885Z,102492.09
2022-11-30T12:12:02.233Z,102494.66
2022-11-30T12:14:33.129Z,102493.78
2022-11-30T12:17:24.433Z,102498.88
2022-11-30T12:20:48.631Z,102491.19
2022-11-30T12:23:29.990Z,102492.00
2022-11-30T12:26:14.573Z,102493.66
2022-11-30T12:28:59.929Z,102483.34
2022-11-30T12:31:50.712Z,102494.47
2022-11-30T12:34:45.517Z,102494.41
2022-11-30T12:37:23.484Z,102501.94
2022-11-30T12:39:56.173Z,102505.34
2022-11-30T12:42:32.913Z,102496.81
2022-11-30T12:45:31.534Z,102453.00
2022-11-30T12:48:28.946Z,102509.53
2022-11-30T12:51:37.856Z,102512.72
2022-11-30T12:54:29.891Z,102510.13
2022-11-30T12:57:08.680Z,102518.66
2022-11-30T13:00:00.046Z,102516.88
2022-11-30T13:03:00.766Z,102516.75
2022-11-30T13:05:43.671Z,102514.09
2022-11-30T13:08:19.453Z,102522.59
2022-11-30T13:10:51.729Z,102517.41
2022-11-30T13:13:29.201Z,102528.31
2022-11-30T13:15:58.149Z,102509.59
2022-11-30T13:18:26.156Z,102506.16
2022-11-30T13:21:01.835Z,102510.38
2022-11-30T13:23:46.124Z,102509.41
2022-11-30T13:26:19.211Z,102518.78
2022-11-30T13:29:16.907Z,102523.81
2022-11-30T13:32:05.560Z,102511.03
2022-11-30T13:34:33.095Z,102505.75
2022-11-30T13:37:09.346Z,102512.50
2022-11-30T13:39:52.069Z,102505.66
2022-11-30T13:42:57.241Z,102508.19
2022-11-30T13:45:27.108Z,102509.03
2022-11-30T13:47:56.328Z,102493.56
2022-11-30T13:50:32.510Z,102498.75
2022-11-30T13:53:20.217Z,102509.72
2022-11-30T13:55:56.519Z,102514.81
2022-11-30T13:58:24.390Z,102502.84
2022-11-30T14:01:00.410Z,102508.75
2022-11-30T14:03:29.715Z,102508.69
2022-11-30T14:06:01.746Z,102503.53
2022-11-30T14:08:38.126Z,102510.25
2022-11-30T14:11:17.647Z,102497.41
2022-11-30T14:13:44.980Z,102501.59
2022-11-30T14:16:27.733Z,102495.56
2022-11-30T14:18:56.931Z,102495.50
2022-11-30T14:21:33.297Z,102493.75
2022-11-30T14:24:20.419Z,102496.25
2022-11-30T14:26:50.465Z,102496.06
2022-11-30T14:29:23.687Z,102479.75
2022-11-30T14:31:56.319Z,102496.06
2022-11-30T14:34:36.259Z,102496.94
2022-11-30T14:37:13.659Z,102490.88
2022-11-30T14:39:44.418Z,102506.28
2022-11-30T14:42:28.784Z,102488.41
2022-11-30T14:44:56.670Z,102489.09
2022-11-30T14:47:23.543Z,102501.13
2022-11-30T14:49:53.036Z,102490.91
2022-11-30T14:52:39.010Z,102484.00
2022-11-30T14:55:18.705Z,102502.75
2022-11-30T14:58:07.613Z,102507.88
2022-11-30T15:00:44.035Z,102493.25
2022-11-30T15:03:40.848Z,102502.78
2022-11-30T15:06:08.470Z,102508.66
2022-11-30T15:08:38.692Z,102503.56
2022-11-30T15:11:09.531Z,102503.47
2022-11-30T15:13:46.546Z,102498.38
2022-11-30T15:16:22.373Z,102515.38
2022-11-30T15:18:50.075Z,102511.09
2022-11-30T15:21:21.609Z,102510.19
2022-11-30T15:23:51.409Z,102503.19
2022-11-30T15:26:26.158Z,102507.59
2022-11-30T15:29:07.709Z,102503.19
2022-11-30T15:31:37.813Z,102516.91
2022-11-30T15:34:06.486Z,102511.78
2022-11-30T15:36:38.564Z,102506.44
2022-11-30T15:39:21.047Z,102502.31
2022-11-30T15:41:54.834Z,102497.22
2022-11-30T15:44:44.272Z,102507.47
2022-11-30T15:47:35.106Z,102504.03
2022-11-30T15:50:03.450Z,102504.81
2022-11-30T15:52:31.353Z,102508.09
2022-11-30T15:55:03.372Z,102507.25
2022-11-30T15:57:57.839Z,102498.81
2022-11-30T16:00:25.508Z,102500.50
2022-11-30T16:03:11.038Z,102504.72
2022-11-30T16:05:39.476Z,102509.03
2022-11-30T16:08:17.029Z,102503.84
2022-11-30T16:10:44.152Z,102504.66
2022-11-30T16:13:19.170Z,102500.44
2022-11-30T16:15:52.611Z,102499.59
2022-11-30T16:18:24.974Z,102501.28
2022-11-30T16:20:54.741Z,102504.72
2022-11-30T16:23:21.760Z,102498.75
2022-11-30T16:25:50.191Z,102499.59
2022-11-30T16:28:18.581Z,102497.03
2022-11-30T16:30:46.377Z,102496.16
2022-11-30T16:33:15.848Z,102492.00
2022-11-30T16:35:53.976Z,102490.22
2022-11-30T16:38:22.366Z,102490.19
2022-11-30T16:40:49.340Z,102490.19
2022-11-30T16:43:16.305Z,102472.91
2022-11-30T16:45:46.848Z,102489.31
2022-11-30T16:48:16.978Z,102485.06
2022-11-30T16:50:44.793Z,102467.81
2022-11-30T16:53:16.872Z,102494.34
2022-11-30T16:55:44.146Z,102494.38
2022-11-30T16:58:11.085Z,102489.28
2022-11-30T17:00:40.282Z,102475.38
2022-11-30T17:03:16.588Z,102494.22
2022-11-30T17:05:43.653Z,102493.41
2022-11-30T17:08:11.284Z,102482.16
2022-11-30T17:10:38.829Z,102498.47
2022-11-30T17:13:06.324Z,102493.41
2022-11-30T17:15:33.224Z,102491.56
2022-11-30T17:18:00.409Z,102498.41
2022-11-30T17:20:27.992Z,102468.44
2022-11-30T17:22:54.985Z,102499.25
2022-11-30T17:25:23.627Z,102490.78
2022-11-30T17:27:51.861Z,102481.22
2022-11-30T17:30:20.743Z,102470.00
2022-11-30T17:32:50.865Z,102485.44
2022-11-30T17:35:47.034Z,102498.16
2022-11-30T17:38:19.027Z,102498.97
2022-11-30T17:44:14.889Z,102503.09
2022-11-30T17:46:46.709Z,102498.06
2022-11-30T17:49:46.685Z,102493.84
2022-11-30T17:52:15.723Z,102489.63
2022-11-30T17:54:43.206Z,102497.22
2022-11-30T17:57:16.178Z,102496.38
2022-11-30T18:00:15.239Z,102508.25
2022-11-30T18:02:58.551Z,102495.41
2022-11-30T18:05:39.290Z,102503.03
2022-11-30T18:11:26.199Z,102508.25
2022-11-30T18:13:59.422Z,102511.66
2022-11-30T18:16:36.563Z,102495.31
2022-11-30T18:22:19.772Z,102510.59
2022-11-30T18:24:52.741Z,102517.41
2022-11-30T18:30:15.679Z,102516.59
2022-11-30T18:32:45.482Z,102518.28
2022-11-30T18:35:12.484Z,102510.66
2022-11-30T18:38:11.357Z,102516.59
2022-11-30T18:40:44.461Z,102506.22
2022-11-30T18:55:36.549Z,102493.75
2022-11-30T18:58:03.924Z,102520.50
2022-11-30T19:00:55.904Z,102526.41
2022-11-30T19:03:22.863Z,102520.44
2022-11-30T19:06:20.718Z,102521.28
2022-11-30T19:08:48.304Z,102523.69
2022-11-30T19:17:32.969Z,102534.66
2022-11-30T19:20:24.663Z,102520.22
2022-11-30T19:22:59.020Z,102544.03
2022-11-30T19:25:25.916Z,102541.44
2022-11-30T19:28:23.536Z,102527.69
2022-11-30T19:30:57.416Z,102536.28
2022-11-30T19:33:31.189Z,102538.09
2022-11-30T19:36:02.220Z,102546.56
2022-11-30T19:38:41.274Z,102544.03
2022-11-30T19:41:33.749Z,102535.41
2022-11-30T19:44:05.925Z,102529.34
2022-11-30T19:46:57.437Z,102548.22
2022-11-30T19:49:26.433Z,102550.75
2022-11-30T19:52:20.425Z,102552.41
2022-11-30T19:59:23.726Z,102554.84
2022-11-30T20:01:56.843Z,102561.63
2022-11-30T20:04:27.800Z,102547.88
2022-11-30T20:07:20.014Z,102561.53
2022-11-30T20:09:47.021Z,102554.81
2022-11-30T20:12:13.881Z,102561.59
2022-11-30T20:14:40.824Z,102575.19
2022-11-30T20:17:08.256Z,102576.00
2022-11-30T20:19:35.132Z,102575.91
2022-11-30T20:22:04.924Z,102576.72
2022-11-30T20:24:32.028Z,102559.47
2022-11-30T20:26:59.016Z,102581.81
2022-11-30T20:29:25.899Z,102575.03
2022-11-30T20:31:52.974Z,102576.72
2022-11-30T20:34:19.857Z,102575.84
2022-11-30T20:36:47.130Z,102569.03
2022-11-30T20:39:14.149Z,102576.59
2022-11-30T20:41:41.163Z,102574.94
2022-11-30T20:44:08.031Z,102578.28
2022-11-30T20:46:36.196Z,102582.53
2022-11-30T20:49:11.795Z,102585.88
2022-11-30T20:51:39.842Z,102576.53
2022-11-30T20:54:07.913Z,102563.63
2022-11-30T20:56:37.348Z,102574.81
2022-11-30T20:59:06.851Z,102574.72
2022-11-30T21:01:34.014Z,102565.16
2022-11-30T21:04:01.763Z,102562.56
2022-11-30T21:06:32.918Z,102578.91
2022-11-30T21:09:00.411Z,102572.09
2022-11-30T21:11:28.668Z,102579.72
2022-11-30T21:13:56.513Z,102577.13
2022-11-30T21:16:28.608Z,102584.75
2022-11-30T21:18:58.437Z,102577.91
2022-11-30T21:21:31.955Z,102576.03
2022-11-30T21:24:01.448Z,102582.91
2022-11-30T21:26:34.686Z,102589.63
2022-11-30T21:29:20.865Z,102584.56
2022-11-30T21:31:47.833Z,102587.00
2022-11-30T21:34:15.057Z,102587.84
2022-11-30T21:36:42.117Z,102586.16
2022-11-30T21:39:09.767Z,102580.22
2022-11-30T21:41:38.642Z,102587.84
2022-11-30T21:44:07.857Z,102574.00
2022-11-30T21:46:35.140Z,102582.56
2022-11-30T21:49:02.199Z,102589.47
2022-11-30T21:51:31.945Z,102585.19
2022-11-30T21:54:02.041Z,102586.06
2022-11-30T21:56:34.567Z,102581.78
2022-11-30T21:59:03.600Z,102574.00
2022-11-30T22:01:39.356Z,102585.09
2022-11-30T22:04:08.497Z,102591.06
2022-11-30T22:06:37.642Z,102584.22
2022-11-30T22:09:10.127Z,102572.94
2022-11-30T22:11:39.880Z,102587.50
2022-11-30T22:14:10.560Z,102591.72
2022-11-30T22:16:37.967Z,102584.81
2022-11-30T22:19:06.276Z,102587.28
2022-11-30T22:21:33.780Z,102588.78
2022-11-30T22:24:05.847Z,102579.41
2022-11-30T22:26:38.542Z,102583.69
2022-11-30T22:29:12.032Z,102580.31
2022-11-30T22:31:42.610Z,102577.72
2022-11-30T22:34:10.295Z,102578.53
2022-11-30T22:36:39.263Z,102576.75
2022-11-30T22:39:06.127Z,102582.72
2022-11-30T22:41:33.066Z,102578.53
2022-11-30T22:44:00.060Z,102572.53
2022-11-30T22:46:29.762Z,102578.44
2022-11-30T22:48:59.968Z,102576.75
2022-11-30T22:51:29.232Z,102561.22
2022-11-30T22:53:56.882Z,102553.44
2022-11-30T22:56:42.191Z,102561.13
2022-11-30T22:59:11.638Z,102581.69
2022-11-30T23:01:43.260Z,102585.09
2022-11-30T23:04:12.533Z,102594.41
2022-11-30T23:06:41.489Z,102586.69
2022-11-30T23:09:12.228Z,102584.25
2022-11-30T23:11:39.243Z,102587.56
2022-11-30T23:14:08.269Z,102585.88
2022-11-30T23:16:36.412Z,102586.78
2022-11-30T23:19:04.459Z,102581.63
2022-11-30T23:21:41.490Z,102580.72
2022-11-30T23:24:15.989Z,102583.25
2022-11-30T23:26:43.449Z,102587.56
2022-11-30T23:29:13.785Z,102583.25
2022-11-30T23:31:42.705Z,102583.31
2022-11-30T23:34:12.948Z,102585.00
2022-11-30T23:36:40.056Z,102581.44
2022-11-30T23:39:12.838Z,102584.06
2022-11-30T23:41:40.774Z,102577.25
2022-11-30T23:44:08.533Z,102570.25
2022-11-30T23:46:36.594Z,102571.25
2022-11-30T23:49:04.099Z,102551.41
2022-11-30T23:51:31.266Z,102576.38
2022-11-30T23:53:58.157Z,102552.28
2022-11-30T23:56:25.350Z,102581.44
2022-11-30T23:58:52.571Z,102577.19
